sensor_id;sensor_type;location;lat;lon;timestamp;pressure;altitude;pressure_sealevel;temperature;humidity
42945;BME280;28584;42.636;23.294;2024-02-16T00:01:37;67539.38;;;-142.31;100.00
42945;BME280;28584;42.636;23.294;2024-02-16T00:04:03;67539.38;;;-142.31;100.00
42945;BME280;28584;42.636;23.294;2024-02-16T00:06:28;67539.38;;;-142.31;100.00
42945;BME280;28584;42.636;23.294;2024-02-16T00:08:53;67539.38;;;-142.31;100.00
42945;BME280;28584;42.636;23.294;2024-02-16T00:11:19;67539.38;;;-142.31;100.00
42945;BME280;28584;42.636;23.294;2024-02-16T00:13:44;67539.38;;;-142.31;100.00
42945;BME280;28584;42.636;23.294;2024-02-16T00:16:09;67539.38;;;-142.31;100.00
42945;BME280;28584;42.636;23.294;2024-02-16T00:18:35;67539.38;;;-142.31;100.00
42945;BME280;28584;42.636;23.294;2024-02-16T00:21:00;67539.38;;;-142.31;100.00
42945;BME280;28584;42.636;23.294;2024-02-16T00:23:26;67539.38;;;-142.31;100.00
42945;BME280;28584;42.636;23.294;2024-02-16T00:25:52;67539.38;;;-142.31;100.00
42945;BME280;28584;42.636;23.294;2024-02-16T00:28:18;67539.38;;;-142.31;100.00
42945;BME280;28584;42.636;23.294;2024-02-16T00:30:43;67539.38;;;-142.31;100.00
42945;BME280;28584;42.636;23.294;2024-02-16T00:33:09;67539.38;;;-142.31;100.00
42945;BME280;28584;42.636;23.294;2024-02-16T00:35:34;67539.38;;;-142.31;100.00
42945;BME280;28584;42.636;23.294;2024-02-16T00:38:00;67539.38;;;-142.31;100.00
42945;BME280;28584;42.636;23.294;2024-02-16T00:40:25;67539.38;;;-142.31;100.00
42945;BME280;28584;42.636;23.294;2024-02-16T00:42:51;67539.38;;;-142.31;100.00
42945;BME280;28584;42.636;23.294;2024-02-16T00:45:17;67539.38;;;-142.31;100.00
42945;BME280;28584;42.636;23.294;2024-02-16T00:47:42;67539.38;;;-142.31;100.00
42945;BME280;28584;42.636;23.294;2024-02-16T00:50:10;67539.38;;;-142.31;100.00
42945;BME280;28584;42.636;23.294;2024-02-16T00:52:36;67539.38;;;-142.31;100.00
42945;BME280;28584;42.636;23.294;2024-02-16T00:55:02;67539.38;;;-142.31;100.00
42945;BME280;28584;42.636;23.294;2024-02-16T00:57:29;67539.38;;;-142.31;100.00
42945;BME280;28584;42.636;23.294;2024-02-16T00:59:54;67539.38;;;-142.31;100.00
42945;BME280;28584;42.636;23.294;2024-02-16T01:02:20;67539.38;;;-142.31;100.00
42945;BME280;28584;42.636;23.294;2024-02-16T01:04:45;67539.38;;;-142.31;100.00
42945;BME280;28584;42.636;23.294;2024-02-16T01:07:12;67539.38;;;-142.31;100.00
42945;BME280;28584;42.636;23.294;2024-02-16T01:09:37;67539.38;;;-142.31;100.00
42945;BME280;28584;42.636;23.294;2024-02-16T01:12:03;67539.38;;;-142.31;100.00
42945;BME280;28584;42.636;23.294;2024-02-16T01:14:28;67539.38;;;-142.31;100.00
42945;BME280;28584;42.636;23.294;2024-02-16T01:16:53;67539.38;;;-142.31;100.00
42945;BME280;28584;42.636;23.294;2024-02-16T01:19:19;67539.38;;;-142.31;100.00
42945;BME280;28584;42.636;23.294;2024-02-16T01:21:44;67539.38;;;-142.31;100.00
42945;BME280;28584;42.636;23.294;2024-02-16T01:24:12;67539.38;;;-142.31;100.00
42945;BME280;28584;42.636;23.294;2024-02-16T01:26:38;67539.38;;;-142.31;100.00
42945;BME280;28584;42.636;23.294;2024-02-16T01:29:03;67539.38;;;-142.31;100.00
42945;BME280;28584;42.636;23.294;2024-02-16T01:31:29;67539.38;;;-142.31;100.00
42945;BME280;28584;42.636;23.294;2024-02-16T01:33:54;67539.38;;;-142.31;100.00
42945;BME280;28584;42.636;23.294;2024-02-16T01:36:20;67539.38;;;-142.31;100.00
42945;BME280;28584;42.636;23.294;2024-02-16T01:38:45;67539.38;;;-142.31;100.00
42945;BME280;28584;42.636;23.294;2024-02-16T01:41:11;67539.38;;;-142.31;100.00
42945;BME280;28584;42.636;23.294;2024-02-16T01:43:37;67539.38;;;-142.31;100.00
42945;BME280;28584;42.636;23.294;2024-02-16T01:46:03;67539.38;;;-142.31;100.00
42945;BME280;28584;42.636;23.294;2024-02-16T01:48:29;67539.38;;;-142.31;100.00
42945;BME280;28584;42.636;23.294;2024-02-16T01:50:55;67539.38;;;-142.31;100.00
42945;BME280;28584;42.636;23.294;2024-02-16T01:53:21;67539.38;;;-142.31;100.00
42945;BME280;28584;42.636;23.294;2024-02-16T01:55:47;67539.38;;;-142.31;100.00
42945;BME280;28584;42.636;23.294;2024-02-16T01:58:13;67539.38;;;-142.31;100.00
42945;BME280;28584;42.636;23.294;2024-02-16T02:00:39;67539.38;;;-142.31;100.00
42945;BME280;28584;42.636;23.294;2024-02-16T02:03:06;67539.38;;;-142.31;100.00
42945;BME280;28584;42.636;23.294;2024-02-16T02:05:32;67539.38;;;-142.31;100.00
42945;BME280;28584;42.636;23.294;2024-02-16T02:07:58;67539.38;;;-142.31;100.00
42945;BME280;28584;42.636;23.294;2024-02-16T02:10:23;67539.38;;;-142.31;100.00
42945;BME280;28584;42.636;23.294;2024-02-16T02:12:48;67539.38;;;-142.31;100.00
42945;BME280;28584;42.636;23.294;2024-02-16T02:15:14;67539.38;;;-142.31;100.00
42945;BME280;28584;42.636;23.294;2024-02-16T02:17:40;67539.38;;;-142.31;100.00
42945;BME280;28584;42.636;23.294;2024-02-16T02:20:06;67539.38;;;-142.31;100.00
42945;BME280;28584;42.636;23.294;2024-02-16T02:22:36;67539.38;;;-142.31;100.00
42945;BME280;28584;42.636;23.294;2024-02-16T02:25:02;67539.38;;;-142.31;100.00
42945;BME280;28584;42.636;23.294;2024-02-16T02:27:27;67539.38;;;-142.31;100.00
42945;BME280;28584;42.636;23.294;2024-02-16T02:29:53;67539.38;;;-142.31;100.00
42945;BME280;28584;42.636;23.294;2024-02-16T02:32:18;67539.38;;;-142.31;100.00
42945;BME280;28584;42.636;23.294;2024-02-16T02:34:44;67539.38;;;-142.31;100.00
42945;BME280;28584;42.636;23.294;2024-02-16T02:37:09;67539.38;;;-142.31;100.00
42945;BME280;28584;42.636;23.294;2024-02-16T02:39:35;67539.38;;;-142.31;100.00
42945;BME280;28584;42.636;23.294;2024-02-16T02:42:00;67539.38;;;-142.31;100.00
42945;BME280;28584;42.636;23.294;2024-02-16T02:44:26;67539.38;;;-142.31;100.00
42945;BME280;28584;42.636;23.294;2024-02-16T02:46:52;67539.38;;;-142.31;100.00
42945;BME280;28584;42.636;23.294;2024-02-16T02:49:20;67539.38;;;-142.31;100.00
42945;BME280;28584;42.636;23.294;2024-02-16T02:51:46;67539.38;;;-142.31;100.00
42945;BME280;28584;42.636;23.294;2024-02-16T02:54:11;67539.38;;;-142.31;100.00
42945;BME280;28584;42.636;23.294;2024-02-16T02:56:36;67539.38;;;-142.31;100.00
42945;BME280;28584;42.636;23.294;2024-02-16T02:59:02;67539.38;;;-142.31;100.00
42945;BME280;28584;42.636;23.294;2024-02-16T03:01:27;67539.38;;;-142.31;100.00
42945;BME280;28584;42.636;23.294;2024-02-16T03:03:53;67539.38;;;-142.31;100.00
42945;BME280;28584;42.636;23.294;2024-02-16T03:06:19;67539.38;;;-142.31;100.00
42945;BME280;28584;42.636;23.294;2024-02-16T03:08:44;67539.38;;;-142.31;100.00
42945;BME280;28584;42.636;23.294;2024-02-16T03:11:10;67539.38;;;-142.31;100.00
42945;BME280;28584;42.636;23.294;2024-02-16T03:13:36;67539.38;;;-142.31;100.00
42945;BME280;28584;42.636;23.294;2024-02-16T03:16:01;67539.38;;;-142.31;100.00
42945;BME280;28584;42.636;23.294;2024-02-16T03:18:30;67539.38;;;-142.31;100.00
42945;BME280;28584;42.636;23.294;2024-02-16T03:20:56;67539.38;;;-142.31;100.00
42945;BME280;28584;42.636;23.294;2024-02-16T03:23:22;67539.38;;;-142.31;100.00
42945;BME280;28584;42.636;23.294;2024-02-16T03:25:48;67539.38;;;-142.31;100.00
42945;BME280;28584;42.636;23.294;2024-02-16T03:28:13;67539.38;;;-142.31;100.00
42945;BME280;28584;42.636;23.294;2024-02-16T03:30:39;67539.38;;;-142.31;100.00
42945;BME280;28584;42.636;23.294;2024-02-16T03:33:04;67539.38;;;-142.31;100.00
42945;BME280;28584;42.636;23.294;2024-02-16T03:35:30;67539.38;;;-142.31;100.00
42945;BME280;28584;42.636;23.294;2024-02-16T03:37:55;67539.38;;;-142.31;100.00
42945;BME280;28584;42.636;23.294;2024-02-16T03:40:22;67539.38;;;-142.31;100.00
42945;BME280;28584;42.636;23.294;2024-02-16T03:42:48;67539.38;;;-142.31;100.00
42945;BME280;28584;42.636;23.294;2024-02-16T03:45:13;67539.38;;;-142.31;100.00
42945;BME280;28584;42.636;23.294;2024-02-16T03:47:42;67539.38;;;-142.31;100.00
42945;BME280;28584;42.636;23.294;2024-02-16T03:50:08;67539.38;;;-142.31;100.00
42945;BME280;28584;42.636;23.294;2024-02-16T03:52:33;67539.38;;;-142.31;100.00
42945;BME280;28584;42.636;23.294;2024-02-16T03:54:59;67539.38;;;-142.31;100.00
42945;BME280;28584;42.636;23.294;2024-02-16T03:57:24;67539.38;;;-142.31;100.00
42945;BME280;28584;42.636;23.294;2024-02-16T03:59:50;67539.38;;;-142.31;100.00
42945;BME280;28584;42.636;23.294;2024-02-16T04:02:15;67539.38;;;-142.31;100.00
42945;BME280;28584;42.636;23.294;2024-02-16T04:04:41;67539.38;;;-142.31;100.00
42945;BME280;28584;42.636;23.294;2024-02-16T04:07:07;67539.38;;;-142.31;100.00
42945;BME280;28584;42.636;23.294;2024-02-16T04:09:33;67539.38;;;-142.31;100.00
42945;BME280;28584;42.636;23.294;2024-02-16T04:12:00;67539.38;;;-142.31;100.00
42945;BME280;28584;42.636;23.294;2024-02-16T04:14:25;67539.38;;;-142.31;100.00
42945;BME280;28584;42.636;23.294;2024-02-16T04:16:51;67539.38;;;-142.31;100.00
42945;BME280;28584;42.636;23.294;2024-02-16T04:19:17;67539.38;;;-142.31;100.00
42945;BME280;28584;42.636;23.294;2024-02-16T04:21:42;67539.38;;;-142.31;100.00
42945;BME280;28584;42.636;23.294;2024-02-16T04:24:07;67539.38;;;-142.31;100.00
42945;BME280;28584;42.636;23.294;2024-02-16T04:26:33;67539.38;;;-142.31;100.00
42945;BME280;28584;42.636;23.294;2024-02-16T04:28:58;67539.38;;;-142.31;100.00
42945;BME280;28584;42.636;23.294;2024-02-16T04:31:24;67539.38;;;-142.31;100.00
42945;BME280;28584;42.636;23.294;2024-02-16T04:33:49;67539.38;;;-142.31;100.00
42945;BME280;28584;42.636;23.294;2024-02-16T04:36:14;67539.38;;;-142.31;100.00
42945;BME280;28584;42.636;23.294;2024-02-16T04:38:40;67539.38;;;-142.31;100.00
42945;BME280;28584;42.636;23.294;2024-02-16T04:41:06;67539.38;;;-142.31;100.00
42945;BME280;28584;42.636;23.294;2024-02-16T04:43:32;67539.38;;;-142.31;100.00
42945;BME280;28584;42.636;23.294;2024-02-16T04:45:57;67539.38;;;-142.31;100.00
42945;BME280;28584;42.636;23.294;2024-02-16T04:48:23;67539.38;;;-142.31;100.00
42945;BME280;28584;42.636;23.294;2024-02-16T04:50:48;67539.38;;;-142.31;100.00
42945;BME280;28584;42.636;23.294;2024-02-16T04:53:14;67539.38;;;-142.31;100.00
42945;BME280;28584;42.636;23.294;2024-02-16T04:55:39;67539.38;;;-142.31;100.00
42945;BME280;28584;42.636;23.294;2024-02-16T04:58:04;67539.38;;;-142.31;100.00
42945;BME280;28584;42.636;23.294;2024-02-16T05:00:34;67539.38;;;-142.31;100.00
42945;BME280;28584;42.636;23.294;2024-02-16T05:02:59;67539.38;;;-142.31;100.00
42945;BME280;28584;42.636;23.294;2024-02-16T05:05:25;67539.38;;;-142.31;100.00
42945;BME280;28584;42.636;23.294;2024-02-16T05:07:50;67539.38;;;-142.31;100.00
42945;BME280;28584;42.636;23.294;2024-02-16T05:10:16;67539.38;;;-142.31;100.00
42945;BME280;28584;42.636;23.294;2024-02-16T05:12:42;67539.38;;;-142.31;100.00
42945;BME280;28584;42.636;23.294;2024-02-16T05:15:07;67539.38;;;-142.31;100.00
42945;BME280;28584;42.636;23.294;2024-02-16T05:17:34;67539.38;;;-142.31;100.00
42945;BME280;28584;42.636;23.294;2024-02-16T05:19:59;67539.38;;;-142.31;100.00
42945;BME280;28584;42.636;23.294;2024-02-16T05:22:25;67539.38;;;-142.31;100.00
42945;BME280;28584;42.636;23.294;2024-02-16T05:24:50;67539.38;;;-142.31;100.00
42945;BME280;28584;42.636;23.294;2024-02-16T05:27:16;67539.38;;;-142.31;100.00
42945;BME280;28584;42.636;23.294;2024-02-16T05:29:41;67539.38;;;-142.31;100.00
42945;BME280;28584;42.636;23.294;2024-02-16T05:32:07;67539.38;;;-142.31;100.00
42945;BME280;28584;42.636;23.294;2024-02-16T05:34:32;67539.38;;;-142.31;100.00
42945;BME280;28584;42.636;23.294;2024-02-16T05:37:06;67539.38;;;-142.31;100.00
42945;BME280;28584;42.636;23.294;2024-02-16T05:39:33;67539.38;;;-142.31;100.00
42945;BME280;28584;42.636;23.294;2024-02-16T05:42:00;67539.38;;;-142.31;100.00
42945;BME280;28584;42.636;23.294;2024-02-16T05:44:26;67539.38;;;-142.31;100.00
42945;BME280;28584;42.636;23.294;2024-02-16T05:46:52;67539.38;;;-142.31;100.00
42945;BME280;28584;42.636;23.294;2024-02-16T05:49:17;67539.38;;;-142.31;100.00
42945;BME280;28584;42.636;23.294;2024-02-16T05:51:42;67539.38;;;-142.31;100.00
42945;BME280;28584;42.636;23.294;2024-02-16T05:54:25;67539.38;;;-142.31;100.00
42945;BME280;28584;42.636;23.294;2024-02-16T05:56:50;67539.38;;;-142.31;100.00
42945;BME280;28584;42.636;23.294;2024-02-16T05:59:16;67539.38;;;-142.31;100.00
42945;BME280;28584;42.636;23.294;2024-02-16T06:01:41;67539.38;;;-142.31;100.00
42945;BME280;28584;42.636;23.294;2024-02-16T06:04:06;67539.38;;;-142.31;100.00
42945;BME280;28584;42.636;23.294;2024-02-16T06:06:32;67539.38;;;-142.31;100.00
42945;BME280;28584;42.636;23.294;2024-02-16T06:08:57;67539.38;;;-142.31;100.00
42945;BME280;28584;42.636;23.294;2024-02-16T06:11:24;67539.38;;;-142.31;100.00
42945;BME280;28584;42.636;23.294;2024-02-16T06:13:49;67539.38;;;-142.31;100.00
42945;BME280;28584;42.636;23.294;2024-02-16T06:16:15;67539.38;;;-142.31;100.00
42945;BME280;28584;42.636;23.294;2024-02-16T06:18:41;67539.38;;;-142.31;100.00
42945;BME280;28584;42.636;23.294;2024-02-16T06:21:07;67539.38;;;-142.31;100.00
42945;BME280;28584;42.636;23.294;2024-02-16T06:23:32;67539.38;;;-142.31;100.00
42945;BME280;28584;42.636;23.294;2024-02-16T06:25:58;67539.38;;;-142.31;100.00
42945;BME280;28584;42.636;23.294;2024-02-16T06:28:23;67539.38;;;-142.31;100.00
42945;BME280;28584;42.636;23.294;2024-02-16T06:30:48;67539.38;;;-142.31;100.00
42945;BME280;28584;42.636;23.294;2024-02-16T06:33:14;67539.38;;;-142.31;100.00
42945;BME280;28584;42.636;23.294;2024-02-16T06:35:39;67539.38;;;-142.31;100.00
42945;BME280;28584;42.636;23.294;2024-02-16T06:38:05;67539.38;;;-142.31;100.00
42945;BME280;28584;42.636;23.294;2024-02-16T06:40:30;67539.38;;;-142.31;100.00
42945;BME280;28584;42.636;23.294;2024-02-16T06:42:55;67539.38;;;-142.31;100.00
42945;BME280;28584;42.636;23.294;2024-02-16T06:45:21;67539.38;;;-142.31;100.00
42945;BME280;28584;42.636;23.294;2024-02-16T06:47:46;67539.38;;;-142.31;100.00
42945;BME280;28584;42.636;23.294;2024-02-16T06:50:12;67539.38;;;-142.31;100.00
42945;BME280;28584;42.636;23.294;2024-02-16T06:52:37;67539.38;;;-142.31;100.00
42945;BME280;28584;42.636;23.294;2024-02-16T06:55:03;67539.38;;;-142.31;100.00
42945;BME280;28584;42.636;23.294;2024-02-16T06:57:28;67539.38;;;-142.31;100.00
42945;BME280;28584;42.636;23.294;2024-02-16T06:59:54;67539.38;;;-142.31;100.00
42945;BME280;28584;42.636;23.294;2024-02-16T07:02:22;67539.38;;;-142.31;100.00
42945;BME280;28584;42.636;23.294;2024-02-16T07:04:47;67539.38;;;-142.31;100.00
42945;BME280;28584;42.636;23.294;2024-02-16T07:07:13;67539.38;;;-142.31;100.00
42945;BME280;28584;42.636;23.294;2024-02-16T07:09:38;67539.38;;;-142.31;100.00
42945;BME280;28584;42.636;23.294;2024-02-16T07:12:05;67539.38;;;-142.31;100.00
42945;BME280;28584;42.636;23.294;2024-02-16T07:14:31;67539.38;;;-142.31;100.00
42945;BME280;28584;42.636;23.294;2024-02-16T07:16:57;67539.38;;;-142.31;100.00
42945;BME280;28584;42.636;23.294;2024-02-16T07:19:22;67539.38;;;-142.31;100.00
42945;BME280;28584;42.636;23.294;2024-02-16T07:21:48;67539.38;;;-142.31;100.00
42945;BME280;28584;42.636;23.294;2024-02-16T07:24:14;67539.38;;;-142.31;100.00
42945;BME280;28584;42.636;23.294;2024-02-16T07:26:40;67539.38;;;-142.31;100.00
42945;BME280;28584;42.636;23.294;2024-02-16T07:29:05;67539.38;;;-142.31;100.00
42945;BME280;28584;42.636;23.294;2024-02-16T07:31:34;67539.38;;;-142.31;100.00
42945;BME280;28584;42.636;23.294;2024-02-16T07:34:01;67539.38;;;-142.31;100.00
42945;BME280;28584;42.636;23.294;2024-02-16T07:36:26;67539.38;;;-142.31;100.00
42945;BME280;28584;42.636;23.294;2024-02-16T07:38:51;67539.38;;;-142.31;100.00
42945;BME280;28584;42.636;23.294;2024-02-16T07:41:17;67539.38;;;-142.31;100.00
42945;BME280;28584;42.636;23.294;2024-02-16T07:43:42;67539.38;;;-142.31;100.00
42945;BME280;28584;42.636;23.294;2024-02-16T07:46:07;67539.38;;;-142.31;100.00
42945;BME280;28584;42.636;23.294;2024-02-16T07:48:33;67539.38;;;-142.31;100.00
42945;BME280;28584;42.636;23.294;2024-02-16T07:50:59;67539.38;;;-142.31;100.00
42945;BME280;28584;42.636;23.294;2024-02-16T07:53:28;67539.38;;;-142.31;100.00
42945;BME280;28584;42.636;23.294;2024-02-16T07:55:53;67539.38;;;-142.31;100.00
42945;BME280;28584;42.636;23.294;2024-02-16T07:58:19;67539.38;;;-142.31;100.00
42945;BME280;28584;42.636;23.294;2024-02-16T08:00:44;67539.38;;;-142.31;100.00
42945;BME280;28584;42.636;23.294;2024-02-16T08:03:10;67539.38;;;-142.31;100.00
42945;BME280;28584;42.636;23.294;2024-02-16T08:05:35;67539.38;;;-142.31;100.00
42945;BME280;28584;42.636;23.294;2024-02-16T08:08:00;67539.38;;;-142.31;100.00
42945;BME280;28584;42.636;23.294;2024-02-16T08:10:26;67539.38;;;-142.31;100.00
42945;BME280;28584;42.636;23.294;2024-02-16T08:12:51;67539.38;;;-142.31;100.00
42945;BME280;28584;42.636;23.294;2024-02-16T08:15:18;67539.38;;;-142.31;100.00
42945;BME280;28584;42.636;23.294;2024-02-16T08:17:51;67539.38;;;-142.31;100.00
42945;BME280;28584;42.636;23.294;2024-02-16T08:20:17;67539.38;;;-142.31;100.00
42945;BME280;28584;42.636;23.294;2024-02-16T08:22:42;67539.38;;;-142.31;100.00
42945;BME280;28584;42.636;23.294;2024-02-16T08:25:08;67539.38;;;-142.31;100.00
42945;BME280;28584;42.636;23.294;2024-02-16T08:27:33;67539.38;;;-142.31;100.00
42945;BME280;28584;42.636;23.294;2024-02-16T08:29:58;67539.38;;;-142.31;100.00
42945;BME280;28584;42.636;23.294;2024-02-16T08:32:24;67539.38;;;-142.31;100.00
42945;BME280;28584;42.636;23.294;2024-02-16T08:34:49;67539.38;;;-142.31;100.00
42945;BME280;28584;42.636;23.294;2024-02-16T08:37:16;67539.38;;;-142.31;100.00
42945;BME280;28584;42.636;23.294;2024-02-16T08:39:41;67539.38;;;-142.31;100.00
42945;BME280;28584;42.636;23.294;2024-02-16T08:42:07;67539.38;;;-142.31;100.00
42945;BME280;28584;42.636;23.294;2024-02-16T08:44:36;67539.38;;;-142.31;100.00
42945;BME280;28584;42.636;23.294;2024-02-16T08:47:02;67539.38;;;-142.31;100.00
42945;BME280;28584;42.636;23.294;2024-02-16T08:49:28;67539.38;;;-142.31;100.00
42945;BME280;28584;42.636;23.294;2024-02-16T08:51:53;67539.38;;;-142.31;100.00
42945;BME280;28584;42.636;23.294;2024-02-16T08:54:19;67539.38;;;-142.31;100.00
42945;BME280;28584;42.636;23.294;2024-02-16T08:56:47;67539.38;;;-142.31;100.00
42945;BME280;28584;42.636;23.294;2024-02-16T08:59:13;67539.38;;;-142.31;100.00
42945;BME280;28584;42.636;23.294;2024-02-16T09:01:38;67539.38;;;-142.31;100.00
42945;BME280;28584;42.636;23.294;2024-02-16T09:04:07;67539.38;;;-142.31;100.00
42945;BME280;28584;42.636;23.294;2024-02-16T09:06:32;67539.38;;;-142.31;100.00
42945;BME280;28584;42.636;23.294;2024-02-16T09:09:00;67539.38;;;-142.31;100.00
42945;BME280;28584;42.636;23.294;2024-02-16T09:11:25;67539.38;;;-142.31;100.00
42945;BME280;28584;42.636;23.294;2024-02-16T09:13:51;67539.38;;;-142.31;100.00
42945;BME280;28584;42.636;23.294;2024-02-16T09:16:16;67539.38;;;-142.31;100.00
42945;BME280;28584;42.636;23.294;2024-02-16T09:18:41;67539.38;;;-142.31;100.00
42945;BME280;28584;42.636;23.294;2024-02-16T09:21:07;67539.38;;;-142.31;100.00
42945;BME280;28584;42.636;23.294;2024-02-16T09:23:34;67539.38;;;-142.31;100.00
42945;BME280;28584;42.636;23.294;2024-02-16T09:26:00;67539.38;;;-142.31;100.00
42945;BME280;28584;42.636;23.294;2024-02-16T09:28:27;67539.38;;;-142.31;100.00
42945;BME280;28584;42.636;23.294;2024-02-16T09:30:53;67539.38;;;-142.31;100.00
42945;BME280;28584;42.636;23.294;2024-02-16T09:33:20;67539.38;;;-142.31;100.00
42945;BME280;28584;42.636;23.294;2024-02-16T09:35:47;67539.38;;;-142.31;100.00
42945;BME280;28584;42.636;23.294;2024-02-16T09:38:12;67539.38;;;-142.31;100.00
42945;BME280;28584;42.636;23.294;2024-02-16T09:40:37;67539.38;;;-142.31;100.00
42945;BME280;28584;42.636;23.294;2024-02-16T09:43:04;67539.38;;;-142.31;100.00
42945;BME280;28584;42.636;23.294;2024-02-16T09:45:30;67539.38;;;-142.31;100.00
42945;BME280;28584;42.636;23.294;2024-02-16T09:47:57;67539.38;;;-142.31;100.00
42945;BME280;28584;42.636;23.294;2024-02-16T09:50:23;67539.38;;;-142.31;100.00
42945;BME280;28584;42.636;23.294;2024-02-16T09:52:50;67539.38;;;-142.31;100.00
42945;BME280;28584;42.636;23.294;2024-02-16T09:55:16;67539.38;;;-142.31;100.00
42945;BME280;28584;42.636;23.294;2024-02-16T09:57:42;67539.38;;;-142.31;100.00
42945;BME280;28584;42.636;23.294;2024-02-16T10:00:09;67539.38;;;-142.31;100.00
42945;BME280;28584;42.636;23.294;2024-02-16T10:08:52;160403.44;;;6.95;69.63
42945;BME280;28584;42.636;23.294;2024-02-16T10:11:19;160419.44;;;7.01;69.76
42945;BME280;28584;42.636;23.294;2024-02-16T10:13:58;160435.44;;;7.07;69.57
42945;BME280;28584;42.636;23.294;2024-02-16T10:16:23;160460.75;;;7.16;69.99
42945;BME280;28584;42.636;23.294;2024-02-16T10:18:49;160467.41;;;7.19;71.40
42945;BME280;28584;42.636;23.294;2024-02-16T10:21:27;160359.50;;;6.78;73.10
42945;BME280;28584;42.636;23.294;2024-02-16T10:24:04;160296.91;;;6.55;72.00
42945;BME280;28584;42.636;23.294;2024-02-16T10:26:31;160386.16;;;6.88;71.60
42945;BME280;28584;42.636;23.294;2024-02-16T10:28:57;160424.78;;;7.03;72.23
42945;BME280;28584;42.636;23.294;2024-02-16T10:31:24;160430.09;;;7.05;70.51
42945;BME280;28584;42.636;23.294;2024-02-16T10:33:59;160334.22;;;6.69;70.85
42945;BME280;28584;42.636;23.294;2024-02-16T10:36:25;160440.78;;;7.09;71.26
42945;BME280;28584;42.636;23.294;2024-02-16T10:38:54;160438.09;;;7.08;73.13
42945;BME280;28584;42.636;23.294;2024-02-16T10:41:23;160452.75;;;7.13;71.83
42945;BME280;28584;42.636;23.294;2024-02-16T10:43:53;160495.41;;;7.29;72.05
42945;BME280;28584;42.636;23.294;2024-02-16T10:46:19;160487.41;;;7.26;68.88
42945;BME280;28584;42.636;23.294;2024-02-16T10:48:45;160430.09;;;7.05;69.20
42945;BME280;28584;42.636;23.294;2024-02-16T10:51:11;160454.09;;;7.14;69.56
42945;BME280;28584;42.636;23.294;2024-02-16T10:53:38;160462.09;;;7.17;69.95
42945;BME280;28584;42.636;23.294;2024-02-16T10:56:06;160550.00;;;7.50;70.42
42945;BME280;28584;42.636;23.294;2024-02-16T10:58:32;160558.03;;;7.53;68.63
42945;BME280;28584;42.636;23.294;2024-02-16T11:01:08;160498.06;;;7.30;67.76
42945;BME280;28584;42.636;23.294;2024-02-16T11:03:34;160462.09;;;7.17;67.36
42945;BME280;28584;42.636;23.294;2024-02-16T11:06:13;160492.75;;;7.28;68.60
42945;BME280;28584;42.636;23.294;2024-02-16T11:08:39;160510.06;;;7.35;67.83
42945;BME280;28584;42.636;23.294;2024-02-16T11:11:05;160558.03;;;7.53;68.51
42945;BME280;28584;42.636;23.294;2024-02-16T11:13:35;160582.03;;;7.62;66.18
42945;BME280;28584;42.636;23.294;2024-02-16T11:16:01;160618.00;;;7.75;66.28
42945;BME280;28584;42.636;23.294;2024-02-16T11:18:28;160648.66;;;7.87;65.65
42945;BME280;28584;42.636;23.294;2024-02-16T11:20:54;160658.03;;;7.90;64.94
42945;BME280;28584;42.636;23.294;2024-02-16T11:23:27;160654.03;;;7.89;64.43
42945;BME280;28584;42.636;23.294;2024-02-16T11:25:53;160694.00;;;8.04;64.89
42945;BME280;28584;42.636;23.294;2024-02-16T11:28:19;160691.34;;;8.03;63.15
42945;BME280;28584;42.636;23.294;2024-02-16T11:30:45;160702.00;;;8.07;62.90
42945;BME280;28584;42.636;23.294;2024-02-16T11:33:11;160699.34;;;8.06;62.04
42945;BME280;28584;42.636;23.294;2024-02-16T11:35:36;160683.34;;;8.00;61.29
42945;BME280;28584;42.636;23.294;2024-02-16T11:38:01;160691.34;;;8.03;61.37
42945;BME280;28584;42.636;23.294;2024-02-16T11:40:27;160686.00;;;8.01;61.46
42945;BME280;28584;42.636;23.294;2024-02-16T11:42:59;160682.00;;;7.99;61.44
42945;BME280;28584;42.636;23.294;2024-02-16T11:45:25;160663.31;;;7.92;61.98
42945;BME280;28584;42.636;23.294;2024-02-16T11:48:03;160698.00;;;8.05;62.11
42945;BME280;28584;42.636;23.294;2024-02-16T11:50:28;160710.00;;;8.10;61.55
42945;BME280;28584;42.636;23.294;2024-02-16T11:52:55;160712.66;;;8.11;61.46
42945;BME280;28584;42.636;23.294;2024-02-16T11:55:21;160764.72;;;8.30;61.47
42945;BME280;28584;42.636;23.294;2024-02-16T11:57:46;160803.41;;;8.45;60.77
42945;BME280;28584;42.636;23.294;2024-02-16T12:00:16;160894.13;;;8.79;60.51
42945;BME280;28584;42.636;23.294;2024-02-16T12:02:41;160944.78;;;8.98;59.38
42945;BME280;28584;42.636;23.294;2024-02-16T12:05:07;160903.44;;;8.83;58.74
42945;BME280;28584;42.636;23.294;2024-02-16T12:07:33;160867.44;;;8.69;59.10
42945;BME280;28584;42.636;23.294;2024-02-16T12:10:00;160875.44;;;8.72;59.19
42945;BME280;28584;42.636;23.294;2024-02-16T12:12:26;160855.41;;;8.65;59.37
42945;BME280;28584;42.636;23.294;2024-02-16T12:14:54;160838.09;;;8.58;59.82
42945;BME280;28584;42.636;23.294;2024-02-16T12:17:20;160811.41;;;8.48;60.01
42945;BME280;28584;42.636;23.294;2024-02-16T12:19:46;160802.06;;;8.44;60.22
42945;BME280;28584;42.636;23.294;2024-02-16T12:22:17;160784.75;;;8.38;60.94
42945;BME280;28584;42.636;23.294;2024-02-16T12:24:47;160792.75;;;8.41;61.60
42945;BME280;28584;42.636;23.294;2024-02-16T12:27:13;160811.41;;;8.48;61.37